Time;durP1;ratioP1;P1;durP2;ratioP2;P2;SDS_P1;SDS_P2;PMS_P1;PMS_P2;Temp;Humidity;BMP_temperature;BMP_pressure;BME280_temperature;BME280_humidity;BME280_pressure;Samples;Min_cycle;Max_cycle;Signal;HPM_P1;HPM_P2
2022/09/06 00:02:01;;;;;;;;;;;24.40;59.30;;;;;;6251923;28;20889;-40
2022/09/06 00:05:02;;;;;;;;;;;24.50;59.20;;;;;;6257133;28;20063;-40
2022/09/06 00:08:04;;;;;;;;;;;24.80;59.30;;;;;;6260562;28;20870;-40
2022/09/06 00:11:06;;;;;;;;;;;24.70;59.30;;;;;;6256226;28;19928;-41
2022/09/06 00:14:08;;;;;;;;;;;24.40;59.20;;;;;;6256009;28;19961;-40
2022/09/06 00:17:10;;;;;;;;;;;24.70;59.40;;;;;;6258770;28;20016;-42
2022/09/06 00:20:11;;;;;;;;;;;24.50;59.30;;;;;;6258823;28;19967;-41
2022/09/06 00:23:13;;;;;;;;;;;24.80;59.50;;;;;;6255213;28;20717;-41
2022/09/06 00:26:14;;;;;;;;;;;24.60;59.30;;;;;;6258925;28;19928;-41
2022/09/06 00:29:16;;;;;;;;;;;24.20;59.20;;;;;;6255216;28;20049;-42
2022/09/06 00:32:17;;;;;;;;;;;24.30;59.20;;;;;;6257924;28;19935;-40
2022/09/06 00:35:19;;;;;;;;;;;24.50;59.40;;;;;;6255796;28;19936;-40
2022/09/06 00:38:20;;;;;;;;;;;24.50;59.40;;;;;;6257611;28;19988;-41
2022/09/06 00:41:21;;;;;;;;;;;24.50;59.40;;;;;;6253216;28;20450;-41
2022/09/06 00:44:23;;;;;;;;;;;24.90;59.60;;;;;;6257020;28;20844;-41
2022/09/06 00:47:26;;;;;;;;;;;24.80;59.50;;;;;;6259238;28;20844;-40
2022/09/06 00:50:28;;;;;;;;;;;24.50;59.30;;;;;;6251153;28;19932;-40
2022/09/06 00:53:30;;;;;;;;;;;24.80;59.50;;;;;;6251560;28;20057;-40
2022/09/06 00:56:32;;;;;;;;;;;24.80;59.50;;;;;;6237627;28;20046;-43
2022/09/06 00:59:36;;;;;;;;;;;24.50;59.80;;;;;;6258188;28;19982;-40
2022/09/06 01:02:37;;;;;;;;;;;24.80;59.60;;;;;;6257444;28;20360;-41
2022/09/06 01:05:42;;;;;;;;;;;24.50;59.40;;;;;;6261914;28;19932;-41
2022/09/06 01:08:50;;;;;;;;;;;24.30;59.20;;;;;;6233945;28;20490;-40
2022/09/06 01:11:59;;;;;;;;;;;24.80;59.60;;;;;;6250385;28;20198;-40
2022/09/06 01:15:06;;;;;;;;;;;24.40;59.40;;;;;;6250553;28;19967;-41
2022/09/06 01:18:16;;;;;;;;;;;24.40;59.30;;;;;;6248777;28;20259;-40
2022/09/06 01:21:20;;;;;;;;;;;24.50;59.40;;;;;;6230355;28;20038;-41
2022/09/06 01:24:36;;;;;;;;;;;24.70;59.50;;;;;;6252556;28;19928;-41
2022/09/06 01:27:53;;;;;;;;;;;24.80;59.60;;;;;;6226067;28;19939;-40
2022/09/06 01:31:00;;;;;;;;;;;24.60;59.50;;;;;;6237216;28;19932;-42
2022/09/06 01:34:14;;;;;;;;;;;24.80;59.70;;;;;;6235245;28;20669;-40
2022/09/06 01:37:18;;;;;;;;;;;24.60;59.50;;;;;;6250637;28;20554;-41
2022/09/06 01:40:20;;;;;;;;;;;24.30;59.40;;;;;;6236490;28;20947;-43
2022/09/06 01:43:23;;;;;;;;;;;24.70;59.70;;;;;;6248088;28;19939;-40
2022/09/06 01:46:29;;;;;;;;;;;24.30;59.50;;;;;;6249948;28;20377;-44
2022/09/06 01:49:36;;;;;;;;;;;24.20;59.50;;;;;;6247100;28;20505;-42
2022/09/06 01:52:43;;;;;;;;;;;24.70;59.80;;;;;;6244566;28;20736;-41
2022/09/06 01:55:51;;;;;;;;;;;24.70;59.80;;;;;;6250120;28;20055;-42
2022/09/06 01:59:00;;;;;;;;;;;24.70;59.80;;;;;;6243051;28;20005;-41
2022/09/06 02:02:05;;;;;;;;;;;24.30;59.50;;;;;;6248536;28;20415;-42
2022/09/06 02:05:10;;;;;;;;;;;24.30;59.50;;;;;;6248759;28;19932;-40
2022/09/06 02:08:14;;;;;;;;;;;24.70;59.70;;;;;;6248641;28;19928;-40
2022/09/06 02:11:16;;;;;;;;;;;24.20;59.50;;;;;;6247257;28;19932;-42
2022/09/06 02:14:23;;;;;;;;;;;24.50;59.70;;;;;;6246617;28;19928;-42
2022/09/06 02:17:27;;;;;;;;;;;24.40;59.60;;;;;;6244552;28;19928;-40
2022/09/06 02:20:30;;;;;;;;;;;24.60;60.40;;;;;;6251106;28;20493;-44
2022/09/06 02:23:32;;;;;;;;;;;24.30;59.60;;;;;;6247752;28;20249;-40
2022/09/06 02:26:36;;;;;;;;;;;24.70;59.80;;;;;;6228304;28;20187;-40
2022/09/06 02:29:37;;;;;;;;;;;24.60;59.80;;;;;;6246909;28;19932;-42
2022/09/06 02:32:41;;;;;;;;;;;24.50;59.80;;;;;;6244472;28;20268;-40
2022/09/06 02:35:44;;;;;;;;;;;24.20;59.70;;;;;;6242712;28;19940;-40
2022/09/06 02:38:45;;;;;;;;;;;24.50;59.80;;;;;;6239390;28;19930;-42
2022/09/06 02:41:47;;;;;;;;;;;24.20;59.60;;;;;;6259007;28;19991;-41
2022/09/06 02:44:48;;;;;;;;;;;24.30;59.70;;;;;;6256848;28;19938;-42
2022/09/06 02:47:50;;;;;;;;;;;24.30;59.80;;;;;;6257097;28;19924;-41
2022/09/06 02:50:51;;;;;;;;;;;24.40;59.80;;;;;;6261327;28;20002;-41
2022/09/06 02:53:53;;;;;;;;;;;24.30;59.80;;;;;;6260162;28;19935;-41
2022/09/06 02:56:54;;;;;;;;;;;24.50;59.90;;;;;;6259188;28;19973;-44
2022/09/06 02:59:55;;;;;;;;;;;24.60;59.90;;;;;;6262372;28;20027;-41
2022/09/06 03:03:00;;;;;;;;;;;24.60;60.10;;;;;;6261305;28;19940;-40
2022/09/06 03:06:02;;;;;;;;;;;24.70;60.00;;;;;;6242593;28;19964;-42
2022/09/06 03:09:03;;;;;;;;;;;24.70;60.10;;;;;;6258653;28;19964;-40
2022/09/06 03:12:05;;;;;;;;;;;24.20;59.80;;;;;;6261743;28;20459;-41
2022/09/06 03:15:09;;;;;;;;;;;24.40;59.80;;;;;;6262315;28;19931;-40
2022/09/06 03:18:11;;;;;;;;;;;24.30;59.80;;;;;;6245291;28;19993;-46
2022/09/06 03:21:13;;;;;;;;;;;24.90;60.10;;;;;;6260330;28;20794;-39
2022/09/06 03:24:14;;;;;;;;;;;24.30;59.70;;;;;;6264060;28;20842;-39
2022/09/06 03:27:16;;;;;;;;;;;24.50;59.90;;;;;;6263984;28;20818;-41
2022/09/06 03:30:17;;;;;;;;;;;24.60;59.90;;;;;;6244779;28;19983;-38
2022/09/06 03:33:22;;;;;;;;;;;24.50;60.00;;;;;;6259916;28;19940;-40
2022/09/06 03:36:24;;;;;;;;;;;24.20;59.70;;;;;;6237090;28;20981;-39
2022/09/06 03:39:25;;;;;;;;;;;24.30;59.80;;;;;;6254946;28;19939;-38
2022/09/06 03:42:26;;;;;;;;;;;24.30;59.80;;;;;;6257029;28;19924;-38
2022/09/06 03:45:28;;;;;;;;;;;25.10;60.10;;;;;;6257317;28;20045;-38
2022/09/06 03:48:30;;;;;;;;;;;24.30;59.70;;;;;;6261122;28;20059;-39
2022/09/06 03:51:31;;;;;;;;;;;24.70;59.90;;;;;;6257194;28;19933;-38
2022/09/06 03:54:32;;;;;;;;;;;24.20;59.70;;;;;;6256453;28;21131;-38
2022/09/06 03:57:34;;;;;;;;;;;24.30;59.80;;;;;;6263658;28;20587;-41
2022/09/06 04:00:35;;;;;;;;;;;25.20;60.20;;;;;;6258530;28;19993;-40
2022/09/06 04:03:37;;;;;;;;;;;24.40;60.00;;;;;;6244018;28;19928;-38
2022/09/06 04:06:39;;;;;;;;;;;24.20;59.80;;;;;;6259144;28;19928;-38
2022/09/06 04:09:40;;;;;;;;;;;24.40;60.00;;;;;;6258228;28;19940;-38
2022/09/06 04:12:41;;;;;;;;;;;24.80;60.20;;;;;;6262139;28;19931;-39
2022/09/06 04:15:44;;;;;;;;;;;24.40;60.00;;;;;;6257617;28;20009;-38
2022/09/06 04:18:46;;;;;;;;;;;24.70;60.00;;;;;;6256859;28;19968;-38
2022/09/06 04:21:47;;;;;;;;;;;24.70;60.10;;;;;;6255343;28;20827;-39
2022/09/06 04:24:48;;;;;;;;;;;24.30;60.00;;;;;;6254917;28;19928;-38
2022/09/06 04:27:50;;;;;;;;;;;24.50;60.10;;;;;;6254213;28;19932;-38
2022/09/06 04:30:52;;;;;;;;;;;24.50;60.00;;;;;;6254309;28;19924;-38
2022/09/06 04:33:57;;;;;;;;;;;24.10;59.90;;;;;;6237872;28;19924;-38
2022/09/06 04:36:58;;;;;;;;;;;24.10;59.80;;;;;;6252183;28;20067;-40
2022/09/06 04:39:59;;;;;;;;;;;24.30;60.00;;;;;;6255567;28;20795;-40
2022/09/06 04:43:01;;;;;;;;;;;24.20;60.00;;;;;;6256463;28;20808;-38
2022/09/06 04:46:03;;;;;;;;;;;24.40;60.10;;;;;;6258318;28;20689;-39
2022/09/06 04:49:05;;;;;;;;;;;24.60;60.00;;;;;;6242396;28;19978;-40
2022/09/06 04:52:06;;;;;;;;;;;24.60;60.30;;;;;;6251844;28;19924;-38
2022/09/06 04:55:08;;;;;;;;;;;24.10;60.00;;;;;;6253238;28;19938;-38
2022/09/06 04:58:12;;;;;;;;;;;24.20;60.00;;;;;;6250650;28;20013;-38
2022/09/06 05:01:14;;;;;;;;;;;24.40;60.00;;;;;;6254329;28;19940;-39
2022/09/06 05:04:16;;;;;;;;;;;24.30;60.00;;;;;;6252739;28;19932;-40
2022/09/06 05:07:18;;;;;;;;;;;24.60;60.30;;;;;;6250101;28;19928;-38
2022/09/06 05:10:19;;;;;;;;;;;24.50;60.20;;;;;;6249066;28;21570;-38
2022/09/06 05:13:21;;;;;;;;;;;24.50;60.00;;;;;;6245492;28;20257;-38
2022/09/06 05:16:22;;;;;;;;;;;24.50;60.20;;;;;;6250087;28;20730;-38
2022/09/06 05:19:24;;;;;;;;;;;24.90;60.50;;;;;;6252576;28;19932;-38
2022/09/06 05:22:26;;;;;;;;;;;24.30;60.70;;;;;;6252195;28;19924;-38
2022/09/06 05:25:27;;;;;;;;;;;24.10;60.10;;;;;;6250602;28;20032;-39
2022/09/06 05:28:28;;;;;;;;;;;24.40;60.20;;;;;;6251740;28;19940;-38
2022/09/06 05:31:31;;;;;;;;;;;24.50;60.30;;;;;;6249124;28;19932;-38
2022/09/06 05:34:36;;;;;;;;;;;24.20;60.10;;;;;;6254284;28;19935;-38
2022/09/06 05:37:38;;;;;;;;;;;24.10;60.10;;;;;;6252919;28;19971;-39
2022/09/06 05:40:39;;;;;;;;;;;24.50;60.30;;;;;;6252785;28;19924;-38
2022/09/06 05:43:40;;;;;;;;;;;24.20;60.20;;;;;;6241464;28;21066;-38
2022/09/06 05:46:45;;;;;;;;;;;24.60;60.40;;;;;;6234364;28;19987;-38
2022/09/06 05:49:47;;;;;;;;;;;24.30;60.20;;;;;;6240593;28;19932;-42
2022/09/06 05:52:48;;;;;;;;;;;24.50;60.40;;;;;;6239096;28;19978;-38
2022/09/06 05:55:50;;;;;;;;;;;24.10;60.20;;;;;;6240390;28;20856;-38
2022/09/06 05:58:51;;;;;;;;;;;24.40;60.30;;;;;;6236274;28;19932;-38
2022/09/06 06:01:53;;;;;;;;;;;24.50;60.40;;;;;;6228510;28;19928;-38
2022/09/06 06:04:58;;;;;;;;;;;24.50;61.00;;;;;;6231543;28;20717;-39
2022/09/06 06:08:00;;;;;;;;;;;24.30;60.10;;;;;;6224699;28;20039;-38
2022/09/06 06:11:01;;;;;;;;;;;24.50;60.40;;;;;;6228488;28;19924;-39
2022/09/06 06:14:03;;;;;;;;;;;24.90;60.50;;;;;;6213598;28;20046;-39
2022/09/06 06:17:04;;;;;;;;;;;24.50;60.30;;;;;;6191188;28;19981;-41
2022/09/06 06:20:07;;;;;;;;;;;24.10;60.20;;;;;;6203046;28;20999;-39
2022/09/06 06:23:08;;;;;;;;;;;24.40;60.20;;;;;;6216711;28;19936;-38
2022/09/06 06:26:10;;;;;;;;;;;24.50;60.40;;;;;;6212177;28;19940;-38
2022/09/06 06:29:12;;;;;;;;;;;24.20;60.30;;;;;;6187127;28;19954;-38
2022/09/06 06:32:14;;;;;;;;;;;24.50;60.70;;;;;;6173223;28;19998;-38
2022/09/06 06:35:16;;;;;;;;;;;24.40;60.10;;;;;;6197162;28;19932;-38
2022/09/06 06:38:18;;;;;;;;;;;24.40;60.70;;;;;;6180819;28;19987;-40
2022/09/06 06:41:22;;;;;;;;;;;24.50;60.80;;;;;;6178837;28;19938;-38
2022/09/06 06:44:26;;;;;;;;;;;24.30;60.70;;;;;;6141280;28;19936;-38
2022/09/06 06:47:27;;;;;;;;;;;23.90;60.50;;;;;;6135693;28;21322;-38
2022/09/06 06:50:30;;;;;;;;;;;24.40;60.70;;;;;;6154073;28;19976;-38
2022/09/06 06:53:31;;;;;;;;;;;24.30;60.60;;;;;;6141465;28;19932;-39
2022/09/06 06:56:33;;;;;;;;;;;24.50;60.70;;;;;;6111408;28;19987;-39
2022/09/06 06:59:35;;;;;;;;;;;23.90;60.20;;;;;;6074279;28;20017;-39
2022/09/06 07:02:36;;;;;;;;;;;24.50;60.50;;;;;;6095608;28;21211;-38
2022/09/06 07:05:39;;;;;;;;;;;24.70;60.50;;;;;;6083711;28;20978;-38
2022/09/06 07:09:00;;;;;;;;;;;24.40;60.40;;;;;;6028254;28;19932;-38
2022/09/06 07:12:02;;;;;;;;;;;24.20;60.10;;;;;;6069901;28;19938;-39
2022/09/06 07:15:04;;;;;;;;;;;24.50;60.40;;;;;;6045370;28;21279;-38
2022/09/06 07:18:05;;;;;;;;;;;24.40;60.90;;;;;;5976820;28;20832;-38
2022/09/06 07:21:09;;;;;;;;;;;24.60;60.50;;;;;;5998963;28;26106;-38
2022/09/06 07:24:31;;;;;;;;;;;24.60;60.30;;;;;;5976866;28;23774;-38
2022/09/06 07:27:32;;;;;;;;;;;24.70;60.30;;;;;;5958432;28;27815;-37
2022/09/06 07:30:52;;;;;;;;;;;24.40;60.00;;;;;;5972151;28;24936;-38
2022/09/06 07:33:53;;;;;;;;;;;24.60;60.30;;;;;;5938074;28;23644;-38
2022/09/06 07:36:57;;;;;;;;;;;24.90;60.40;;;;;;5944665;28;19977;-38
2022/09/06 07:39:59;;;;;;;;;;;24.60;60.00;;;;;;5992651;28;20100;-38
2022/09/06 07:43:00;;;;;;;;;;;24.70;60.30;;;;;;6006334;28;19939;-38
2022/09/06 07:46:04;;;;;;;;;;;24.70;60.20;;;;;;6009206;28;21590;-38
2022/09/06 07:49:05;;;;;;;;;;;24.40;59.90;;;;;;5975876;28;33288;-37
2022/09/06 07:52:07;;;;;;;;;;;24.80;60.10;;;;;;5996473;28;31218;-37
2022/09/06 07:55:29;;;;;;;;;;;24.60;60.00;;;;;;5981729;28;20348;-38
2022/09/06 07:58:30;;;;;;;;;;;24.50;59.90;;;;;;5980724;28;30865;-38
2022/09/06 08:01:33;;;;;;;;;;;24.80;59.90;;;;;;5899252;28;33116;-38
2022/09/06 08:04:34;;;;;;;;;;;24.90;60.00;;;;;;5934109;28;32257;-39
2022/09/06 08:07:40;;;;;;;;;;;24.70;59.90;;;;;;5923352;28;31589;-38
2022/09/06 08:10:41;;;;;;;;;;;24.70;60.60;;;;;;5952881;28;19932;-39
2022/09/06 08:13:43;;;;;;;;;;;24.70;59.90;;;;;;5946083;28;19932;-39
2022/09/06 08:16:44;;;;;;;;;;;24.80;60.00;;;;;;5920073;28;19932;-38
2022/09/06 08:19:46;;;;;;;;;;;24.50;59.80;;;;;;5947606;28;20066;-39
2022/09/06 08:22:48;;;;;;;;;;;24.60;60.00;;;;;;5974877;28;19939;-39
2022/09/06 08:25:57;;;;;;;;;;;24.70;59.90;;;;;;5952365;28;19939;-39
2022/09/06 08:28:59;;;;;;;;;;;24.80;59.90;;;;;;5958475;28;29987;-39
2022/09/06 08:32:00;;;;;;;;;;;24.70;60.00;;;;;;5918079;28;19947;-39
2022/09/06 08:35:01;;;;;;;;;;;24.90;59.90;;;;;;5909294;28;19932;-38
2022/09/06 08:38:04;;;;;;;;;;;24.80;59.80;;;;;;5905916;28;20319;-41
2022/09/06 08:41:07;;;;;;;;;;;25.00;59.80;;;;;;5941028;28;19939;-38
2022/09/06 08:44:11;;;;;;;;;;;24.60;59.70;;;;;;5948451;28;20812;-38
2022/09/06 08:47:32;;;;;;;;;;;24.90;59.70;;;;;;5917771;28;24775;-39
2022/09/06 08:50:34;;;;;;;;;;;25.10;59.70;;;;;;5943337;28;28501;-38
2022/09/06 08:53:38;;;;;;;;;;;25.00;59.60;;;;;;5962023;28;19932;-38
2022/09/06 08:56:43;;;;;;;;;;;24.70;59.40;;;;;;5953968;28;22234;-40
2022/09/06 08:59:45;;;;;;;;;;;25.00;59.70;;;;;;5897895;28;31820;-39
2022/09/06 09:02:50;;;;;;;;;;;24.90;59.50;;;;;;5848387;28;31540;-38
2022/09/06 09:05:52;;;;;;;;;;;25.10;59.50;;;;;;5903168;28;29706;-39
2022/09/06 09:09:00;;;;;;;;;;;25.10;59.80;;;;;;5874778;28;21449;-38
2022/09/06 09:12:02;;;;;;;;;;;24.50;59.90;;;;;;5893778;28;31922;-37
2022/09/06 09:15:07;;;;;;;;;;;24.90;59.80;;;;;;5905194;28;32391;-38
2022/09/06 09:18:09;;;;;;;;;;;24.70;59.60;;;;;;5935715;28;22172;-37
2022/09/06 09:21:11;;;;;;;;;;;25.00;59.80;;;;;;5934833;28;31805;-38
2022/09/06 09:24:14;;;;;;;;;;;25.10;59.80;;;;;;5959344;28;32361;-38
2022/09/06 09:27:17;;;;;;;;;;;24.70;59.60;;;;;;5961478;28;19932;-39
2022/09/06 09:30:18;;;;;;;;;;;25.00;59.80;;;;;;5969687;28;20013;-38
2022/09/06 09:33:40;;;;;;;;;;;24.70;59.80;;;;;;5878692;28;25000;-38
2022/09/06 09:36:41;;;;;;;;;;;24.70;59.70;;;;;;5934045;28;23032;-39
2022/09/06 09:40:03;;;;;;;;;;;24.90;59.80;;;;;;5940267;28;20184;-38
2022/09/06 09:43:10;;;;;;;;;;;24.50;59.60;;;;;;5955391;28;21877;-38
2022/09/06 09:46:13;;;;;;;;;;;24.90;59.90;;;;;;5935595;28;27287;-38
2022/09/06 09:49:27;;;;;;;;;;;24.80;59.90;;;;;;5930485;28;24768;-38
2022/09/06 09:52:30;;;;;;;;;;;25.00;60.00;;;;;;5893148;28;20878;-38
2022/09/06 09:55:32;;;;;;;;;;;24.40;59.70;;;;;;5929468;28;20261;-38
2022/09/06 09:58:35;;;;;;;;;;;24.40;59.70;;;;;;5903805;28;20981;-38
2022/09/06 10:01:37;;;;;;;;;;;25.00;60.00;;;;;;5896476;28;20845;-39
2022/09/06 10:04:48;;;;;;;;;;;24.70;60.00;;;;;;5919234;28;32337;-38
2022/09/06 10:07:50;;;;;;;;;;;25.00;60.00;;;;;;5907409;28;34123;-38
2022/09/06 10:10:53;;;;;;;;;;;24.80;60.00;;;;;;5925333;28;20794;-39
2022/09/06 10:14:08;;;;;;;;;;;25.00;60.50;;;;;;5943045;28;20042;-39
2022/09/06 10:17:17;;;;;;;;;;;25.00;60.00;;;;;;5993195;28;19940;-41
2022/09/06 10:20:20;;;;;;;;;;;25.00;59.80;;;;;;5999598;28;20013;-38
2022/09/06 10:23:28;;;;;;;;;;;24.90;59.90;;;;;;5974768;28;20966;-39
2022/09/06 10:26:50;;;;;;;;;;;25.00;60.10;;;;;;5996086;28;20856;-38
2022/09/06 10:29:55;;;;;;;;;;;25.20;60.00;;;;;;6026943;28;19935;-38
2022/09/06 10:32:59;;;;;;;;;;;24.80;59.70;;;;;;6025508;28;21113;-38
2022/09/06 10:36:02;;;;;;;;;;;24.90;59.90;;;;;;6044633;28;20017;-38
2022/09/06 10:39:12;;;;;;;;;;;25.10;60.00;;;;;;6045078;28;19932;-38
2022/09/06 10:42:21;;;;;;;;;;;24.70;59.80;;;;;;6009986;28;19936;-38
2022/09/06 10:45:27;;;;;;;;;;;25.00;60.00;;;;;;6018925;28;19932;-38
2022/09/06 10:48:29;;;;;;;;;;;25.10;60.00;;;;;;6062177;28;19947;-38
2022/09/06 10:51:33;;;;;;;;;;;25.10;60.10;;;;;;6090907;28;20908;-39
2022/09/06 10:54:37;;;;;;;;;;;25.00;60.00;;;;;;6117144;28;20577;-38
2022/09/06 10:57:42;;;;;;;;;;;24.90;59.80;;;;;;6118282;28;19939;-38
2022/09/06 11:01:06;;;;;;;;;;;25.00;60.00;;;;;;6120441;28;21089;-38
2022/09/06 11:04:18;;;;;;;;;;;25.30;60.10;;;;;;6120848;28;21282;-38
2022/09/06 11:07:24;;;;;;;;;;;24.90;59.90;;;;;;6097784;28;19932;-39
2022/09/06 11:10:26;;;;;;;;;;;25.10;60.00;;;;;;6078632;28;20380;-39
2022/09/06 11:13:31;;;;;;;;;;;24.80;59.90;;;;;;6143815;28;19932;-38
2022/09/06 11:16:38;;;;;;;;;;;24.80;59.80;;;;;;6145167;28;22211;-40
2022/09/06 11:19:41;;;;;;;;;;;24.80;59.90;;;;;;6135620;28;19932;-42
2022/09/06 11:22:54;;;;;;;;;;;24.70;59.70;;;;;;6128481;28;20049;-39
2022/09/06 11:26:02;;;;;;;;;;;24.80;59.80;;;;;;6125607;28;19985;-38
2022/09/06 11:29:16;;;;;;;;;;;25.30;60.10;;;;;;6112208;28;19932;-38
2022/09/06 11:32:28;;;;;;;;;;;25.00;59.80;;;;;;6113666;28;19936;-40
2022/09/06 11:35:31;;;;;;;;;;;25.20;60.00;;;;;;6109158;28;20074;-42
2022/09/06 11:38:32;;;;;;;;;;;24.90;59.80;;;;;;6061701;28;19939;-38
2022/09/06 11:41:35;;;;;;;;;;;24.70;59.70;;;;;;6061005;28;19951;-38
2022/09/06 11:44:52;;;;;;;;;;;25.30;60.00;;;;;;6007837;28;21010;-39
2022/09/06 11:47:54;;;;;;;;;;;25.00;60.00;;;;;;5991963;28;19932;-39
2022/09/06 11:51:00;;;;;;;;;;;24.90;59.90;;;;;;6009734;28;21029;-39
2022/09/06 11:54:05;;;;;;;;;;;25.40;60.10;;;;;;5998042;28;19932;-38
2022/09/06 11:57:12;;;;;;;;;;;25.10;60.00;;;;;;6033154;28;19932;-38
2022/09/06 12:00:17;;;;;;;;;;;25.30;60.00;;;;;;5987962;28;25572;-38
2022/09/06 12:03:35;;;;;;;;;;;25.20;60.00;;;;;;5938122;28;19939;-39
2022/09/06 12:07:07;;;;;;;;;;;25.30;60.00;;;;;;5927389;28;22509;-38
2022/09/06 12:10:23;;;;;;;;;;;25.00;60.00;;;;;;5923952;28;20258;-40
2022/09/06 12:13:40;;;;;;;;;;;25.30;60.40;;;;;;5936311;28;19990;-39
2022/09/06 12:16:54;;;;;;;;;;;24.80;60.20;;;;;;5919742;28;22027;-39
2022/09/06 12:20:04;;;;;;;;;;;25.10;60.60;;;;;;5951852;28;26289;-39
2022/09/06 12:23:06;;;;;;;;;;;25.10;60.50;;;;;;5975681;28;19995;-38
2022/09/06 12:26:07;;;;;;;;;;;25.20;60.60;;;;;;5970564;28;23731;-39
2022/09/06 12:29:10;;;;;;;;;;;25.20;60.60;;;;;;5913990;28;20049;-38
2022/09/06 12:32:12;;;;;;;;;;;25.30;61.30;;;;;;5946932;28;19931;-39
2022/09/06 12:35:14;;;;;;;;;;;24.60;60.30;;;;;;5949862;28;22513;-40
2022/09/06 12:38:36;;;;;;;;;;;24.90;60.30;;;;;;5900830;28;22379;-39
2022/09/06 12:41:39;;;;;;;;;;;25.30;60.40;;;;;;5947182;28;31356;-41
2022/09/06 12:44:47;;;;;;;;;;;25.30;60.20;;;;;;5927733;28;30326;-38
2022/09/06 12:47:50;;;;;;;;;;;25.20;60.30;;;;;;5947808;28;31226;-39
2022/09/06 12:50:59;;;;;;;;;;;24.90;60.00;;;;;;5949909;28;31657;-40
2022/09/06 12:54:03;;;;;;;;;;;25.30;60.30;;;;;;5924166;28;31430;-39
2022/09/06 12:57:11;;;;;;;;;;;25.30;60.20;;;;;;5933250;28;30649;-38
2022/09/06 13:00:13;;;;;;;;;;;25.30;60.10;;;;;;5920151;28;30771;-39
2022/09/06 13:03:24;;;;;;;;;;;25.20;60.10;;;;;;5930115;28;22064;-38
2022/09/06 13:06:26;;;;;;;;;;;25.10;60.00;;;;;;5943347;28;19975;-38
2022/09/06 13:09:29;;;;;;;;;;;24.90;60.10;;;;;;5886129;28;20750;-38
2022/09/06 13:12:31;;;;;;;;;;;25.30;60.00;;;;;;5947182;28;21383;-38
2022/09/06 13:15:32;;;;;;;;;;;25.50;60.10;;;;;;5923061;28;21511;-38
2022/09/06 13:18:35;;;;;;;;;;;25.10;59.90;;;;;;5946137;28;31440;-39
2022/09/06 13:21:40;;;;;;;;;;;25.00;59.70;;;;;;5975802;28;29183;-38
2022/09/06 13:24:47;;;;;;;;;;;25.40;60.10;;;;;;5981190;28;23232;-38
2022/09/06 13:27:49;;;;;;;;;;;25.30;60.00;;;;;;5995505;28;19936;-38
2022/09/06 13:31:04;;;;;;;;;;;24.90;60.00;;;;;;5980808;28;31062;-38
2022/09/06 13:34:06;;;;;;;;;;;25.20;60.00;;;;;;5950574;28;24067;-38
2022/09/06 13:37:08;;;;;;;;;;;25.10;60.20;;;;;;5954000;28;31331;-40
2022/09/06 13:40:25;;;;;;;;;;;25.50;60.10;;;;;;5964427;28;39957;-39
2022/09/06 13:43:27;;;;;;;;;;;25.30;60.20;;;;;;5975009;28;22196;-38
2022/09/06 13:46:29;;;;;;;;;;;25.30;60.10;;;;;;5959317;28;23770;-39
2022/09/06 13:49:31;;;;;;;;;;;25.30;60.20;;;;;;5979870;28;21576;-39
2022/09/06 13:52:32;;;;;;;;;;;25.40;60.30;;;;;;5920885;28;19932;-38
2022/09/06 13:55:34;;;;;;;;;;;25.30;60.20;;;;;;5927778;28;28398;-38
2022/09/06 13:58:36;;;;;;;;;;;25.30;60.20;;;;;;5903195;28;39903;-38
2022/09/06 14:01:38;;;;;;;;;;;25.30;60.10;;;;;;5929351;28;32185;-38
2022/09/06 14:04:39;;;;;;;;;;;25.40;60.20;;;;;;5905800;28;23644;-39
2022/09/06 14:07:41;;;;;;;;;;;25.40;60.30;;;;;;5924765;28;23347;-38
2022/09/06 14:10:42;;;;;;;;;;;25.50;60.40;;;;;;5969943;28;25470;-38
2022/09/06 14:13:44;;;;;;;;;;;25.30;60.20;;;;;;5961057;28;19939;-38
2022/09/06 14:16:46;;;;;;;;;;;25.40;60.30;;;;;;5958309;28;20770;-39
2022/09/06 14:19:49;;;;;;;;;;;25.00;60.10;;;;;;5948835;28;19932;-39
2022/09/06 14:22:51;;;;;;;;;;;25.30;60.40;;;;;;5958412;28;29149;-39
2022/09/06 14:25:54;;;;;;;;;;;25.10;60.20;;;;;;5970736;28;19932;-38
2022/09/06 14:28:56;;;;;;;;;;;25.50;60.50;;;;;;5942339;28;22681;-39
2022/09/06 14:31:57;;;;;;;;;;;25.10;60.20;;;;;;5893694;28;29959;-39
2022/09/06 14:35:01;;;;;;;;;;;25.40;60.50;;;;;;5930458;28;20965;-39
2022/09/06 14:38:03;;;;;;;;;;;25.10;60.30;;;;;;5972855;28;21459;-38
2022/09/06 14:41:06;;;;;;;;;;;25.20;60.50;;;;;;5984900;28;20124;-39
2022/09/06 14:44:08;;;;;;;;;;;24.90;60.30;;;;;;5967040;28;23113;-39
2022/09/06 14:47:10;;;;;;;;;;;24.90;60.30;;;;;;5935898;28;29223;-40
2022/09/06 14:50:12;;;;;;;;;;;25.00;60.40;;;;;;5932848;28;21532;-39
2022/09/06 14:53:14;;;;;;;;;;;25.20;60.60;;;;;;5934994;28;29255;-39
2022/09/06 14:56:37;;;;;;;;;;;25.30;60.80;;;;;;5951463;28;35467;-38
2022/09/06 14:59:40;;;;;;;;;;;25.30;60.90;;;;;;5961290;28;31298;-39
2022/09/06 15:02:42;;;;;;;;;;;24.90;60.50;;;;;;5942021;28;23003;-39
2022/09/06 15:05:44;;;;;;;;;;;24.90;60.60;;;;;;5944164;28;19933;-39
2022/09/06 15:08:46;;;;;;;;;;;24.80;60.50;;;;;;5969615;28;19933;-38
2022/09/06 15:11:49;;;;;;;;;;;25.20;60.90;;;;;;5939301;28;30856;-38
2022/09/06 15:14:51;;;;;;;;;;;25.30;61.00;;;;;;5947549;28;22126;-38
2022/09/06 15:17:52;;;;;;;;;;;25.10;60.90;;;;;;5962816;28;22777;-38
2022/09/06 15:20:54;;;;;;;;;;;25.10;61.10;;;;;;5965043;28;31816;-39
2022/09/06 15:23:56;;;;;;;;;;;25.30;61.00;;;;;;6019404;28;20088;-38
2022/09/06 15:26:58;;;;;;;;;;;25.20;61.10;;;;;;6037266;28;20078;-38
2022/09/06 15:30:00;;;;;;;;;;;25.20;61.00;;;;;;6042397;28;19932;-38
2022/09/06 15:33:02;;;;;;;;;;;25.20;61.10;;;;;;6013300;28;19932;-39
2022/09/06 15:36:05;;;;;;;;;;;25.00;60.90;;;;;;6053782;28;19938;-38
2022/09/06 15:39:06;;;;;;;;;;;25.30;61.10;;;;;;6028331;28;22157;-41
2022/09/06 15:42:08;;;;;;;;;;;25.20;61.20;;;;;;6044208;28;19932;-39
2022/09/06 15:45:10;;;;;;;;;;;25.30;61.20;;;;;;6055516;28;20036;-39
2022/09/06 15:48:13;;;;;;;;;;;24.80;60.90;;;;;;6043636;28;19932;-38
2022/09/06 15:51:16;;;;;;;;;;;25.20;61.20;;;;;;6058223;28;19939;-38
2022/09/06 15:54:18;;;;;;;;;;;24.90;61.00;;;;;;6089895;28;19932;-38
2022/09/06 15:57:19;;;;;;;;;;;25.20;61.40;;;;;;6103116;28;20968;-39
2022/09/06 16:00:22;;;;;;;;;;;25.20;61.50;;;;;;6072233;28;20950;-41
2022/09/06 16:03:23;;;;;;;;;;;25.20;61.10;;;;;;6076640;28;19933;-38
2022/09/06 16:06:26;;;;;;;;;;;24.90;60.90;;;;;;6072076;28;19932;-39
2022/09/06 16:09:29;;;;;;;;;;;25.30;60.90;;;;;;6078434;28;19932;-38
2022/09/06 16:12:31;;;;;;;;;;;25.10;60.90;;;;;;6128184;28;19932;-39
2022/09/06 16:15:34;;;;;;;;;;;25.10;61.20;;;;;;6119768;28;19932;-40
2022/09/06 16:18:37;;;;;;;;;;;25.00;61.10;;;;;;6137450;28;19938;-38
2022/09/06 16:21:39;;;;;;;;;;;25.10;61.10;;;;;;6121301;28;20071;-39
2022/09/06 16:24:40;;;;;;;;;;;24.70;61.00;;;;;;6158866;28;20196;-40
2022/09/06 16:27:42;;;;;;;;;;;25.20;61.40;;;;;;6153183;28;20511;-39
2022/09/06 16:30:44;;;;;;;;;;;25.00;61.10;;;;;;6177125;28;20044;-38
2022/09/06 16:33:49;;;;;;;;;;;24.80;61.00;;;;;;6153317;28;19932;-39
2022/09/06 16:36:50;;;;;;;;;;;25.00;61.20;;;;;;6159436;28;20153;-38
2022/09/06 16:39:52;;;;;;;;;;;25.30;61.50;;;;;;6176485;28;19966;-39
2022/09/06 16:42:53;;;;;;;;;;;25.10;62.00;;;;;;6187609;28;19940;-40
2022/09/06 16:45:56;;;;;;;;;;;25.20;61.30;;;;;;6183566;28;19939;-40
2022/09/06 16:48:59;;;;;;;;;;;24.70;60.90;;;;;;6183839;28;20021;-40
2022/09/06 16:52:01;;;;;;;;;;;25.40;61.40;;;;;;6186157;28;20117;-39
2022/09/06 16:55:02;;;;;;;;;;;24.70;60.90;;;;;;6182478;28;20051;-39
2022/09/06 16:58:04;;;;;;;;;;;25.30;61.30;;;;;;6185824;28;20137;-39
2022/09/06 17:01:08;;;;;;;;;;;25.00;61.00;;;;;;6193905;28;19987;-38
2022/09/06 17:04:09;;;;;;;;;;;24.90;60.90;;;;;;6118841;28;19973;-39
2022/09/06 17:07:11;;;;;;;;;;;25.10;61.00;;;;;;6191518;28;20025;-39
2022/09/06 17:10:12;;;;;;;;;;;25.30;61.00;;;;;;6188009;28;20150;-39
2022/09/06 17:13:13;;;;;;;;;;;25.20;60.90;;;;;;6195506;28;20083;-40
2022/09/06 17:19:33;;;;;;;;;;;25.00;60.60;;;;;;6200366;28;20043;-39
2022/09/06 17:22:35;;;;;;;;;;;25.30;60.80;;;;;;6178727;28;20073;-39
2022/09/06 17:25:40;;;;;;;;;;;25.30;61.50;;;;;;6196068;28;20017;-41
2022/09/06 17:28:42;;;;;;;;;;;25.50;60.80;;;;;;6214983;28;19939;-39
2022/09/06 17:31:44;;;;;;;;;;;25.20;60.60;;;;;;6216324;28;19939;-39
2022/09/06 17:34:45;;;;;;;;;;;25.40;60.70;;;;;;6200820;28;19932;-40
2022/09/06 17:37:47;;;;;;;;;;;25.20;60.50;;;;;;6218142;28;19974;-39
2022/09/06 17:40:55;;;;;;;;;;;25.40;60.70;;;;;;6215347;28;20799;-41
2022/09/06 17:43:57;;;;;;;;;;;25.40;60.60;;;;;;6198833;28;20122;-42
2022/09/06 17:47:01;;;;;;;;;;;25.50;60.70;;;;;;6221051;28;19976;-39
2022/09/06 17:50:14;;;;;;;;;;;25.30;60.60;;;;;;6202469;28;19937;-39
2022/09/06 17:53:16;;;;;;;;;;;25.00;60.30;;;;;;6219201;28;19969;-39